Time;durP1;ratioP1;P1;durP2;ratioP2;P2;SDS_P1;SDS_P2;PMS_P1;PMS_P2;Temp;Humidity;BMP_temperature;BMP_pressure;BME280_temperature;BME280_humidity;BME280_pressure;Samples;Min_cycle;Max_cycle;Signal;HPM_P1;HPM_P2
2021/05/10 00:02:24;;;;;;;6.57;5.20;;;16.80;27.90;18.00;99320.00;;;;5050448;28;20460;-79
2021/05/10 00:04:52;;;;;;;8.07;6.40;;;16.80;27.30;18.10;99314.00;;;;5031882;28;20497;-80
2021/05/10 00:07:21;;;;;;;9.20;7.40;;;16.80;26.90;18.10;99320.00;;;;5024208;28;20815;-80
2021/05/10 00:09:48;;;;;;;6.80;5.17;;;16.80;28.20;18.00;99321.00;;;;5024127;28;20477;-79
2021/05/10 00:12:15;;;;;;;9.27;6.80;;;16.80;28.00;18.00;99340.00;;;;5033551;28;20467;-78
2021/05/10 00:14:44;;;;;;;8.20;7.37;;;16.80;27.90;18.00;99321.00;;;;5031334;28;20545;-79
2021/05/10 00:17:12;;;;;;;8.73;7.43;;;16.80;28.40;18.00;99317.00;;;;5032659;28;20453;-79
2021/05/10 00:19:39;;;;;;;10.70;7.10;;;16.80;28.80;17.90;99333.00;;;;5032108;28;20542;-80
2021/05/10 00:22:07;;;;;;;11.20;8.40;;;16.80;29.10;17.90;99327.00;;;;5050108;28;20973;-81
2021/05/10 00:24:36;;;;;;;13.03;8.40;;;16.80;29.80;17.90;99334.00;;;;5055005;28;20466;-80
2021/05/10 00:27:04;;;;;;;11.10;6.57;;;16.70;31.80;17.90;99333.00;;;;5050586;28;20499;-79
2021/05/10 00:29:32;;;;;;;7.50;6.80;;;16.50;34.00;17.80;99330.00;;;;5052523;28;20469;-81
2021/05/10 00:32:00;;;;;;;6.93;6.20;;;16.50;33.60;17.80;99321.00;;;;5052608;28;20457;-81
2021/05/10 00:34:28;;;;;;;7.97;6.63;;;16.50;33.60;17.80;99340.00;;;;5051602;28;20468;-82
2021/05/10 00:36:55;;;;;;;10.80;8.60;;;16.60;33.30;17.80;99330.00;;;;5049174;28;20830;-80
2021/05/10 00:39:22;;;;;;;10.63;7.60;;;16.60;33.00;17.80;99336.00;;;;5046350;28;20471;-81
2021/05/10 00:41:51;;;;;;;7.17;6.47;;;16.60;33.90;17.80;99338.00;;;;5045262;28;20609;-82
2021/05/10 00:44:18;;;;;;;9.37;7.37;;;16.50;34.50;17.70;99343.00;;;;5045000;28;20944;-82
2021/05/10 00:46:46;;;;;;;9.13;6.80;;;16.40;35.30;17.60;99341.00;;;;5046217;28;20926;-82
2021/05/10 00:49:13;;;;;;;7.77;6.97;;;16.20;36.70;17.50;99331.00;;;;5033884;28;20544;-82
2021/05/10 00:51:41;;;;;;;8.23;6.80;;;16.10;38.80;17.50;99350.00;;;;5043171;28;20481;-80
2021/05/10 00:54:08;;;;;;;9.50;7.17;;;16.00;39.30;17.40;99332.00;;;;5042965;28;20839;-82
2021/05/10 00:56:36;;;;;;;11.00;6.87;;;16.00;40.40;17.40;99354.00;;;;5025133;28;20496;-82
2021/05/10 00:59:04;;;;;;;10.70;6.77;;;16.00;39.60;17.40;99330.00;;;;5032889;28;21030;-80
2021/05/10 01:01:32;;;;;;;10.27;6.77;;;16.00;39.20;17.50;99326.00;;;;5033366;28;20563;-80
2021/05/10 01:03:59;;;;;;;8.87;7.60;;;16.00;39.90;17.40;99352.00;;;;5033085;28;20508;-80
2021/05/10 01:06:27;;;;;;;9.27;6.03;;;16.00;42.50;17.40;99330.00;;;;5036325;28;20512;-81
2021/05/10 01:08:54;;;;;;;7.37;6.67;;;15.90;42.40;17.40;99310.00;;;;5044558;28;20944;-81
2021/05/10 01:11:21;;;;;;;7.60;6.90;;;16.00;40.10;17.50;99337.00;;;;5036156;28;20456;-82
2021/05/10 01:13:49;;;;;;;11.10;7.70;;;16.10;40.20;17.50;99344.00;;;;5036113;28;21009;-80
2021/05/10 01:16:17;;;;;;;7.30;6.60;;;15.90;41.70;217.30;164205.00;;;;5033887;28;20495;-81
2021/05/10 01:18:46;;;;;;;7.03;5.70;;;15.80;42.10;17.40;99348.00;;;;5030939;28;20481;-80
2021/05/10 01:21:13;;;;;;;7.20;5.97;;;15.90;41.10;17.40;99345.00;;;;5032220;28;20487;-81
2021/05/10 01:23:42;;;;;;;9.80;6.67;;;16.00;39.90;17.50;99326.00;;;;5033984;28;20488;-81
2021/05/10 01:26:09;;;;;;;11.33;6.70;;;16.00;38.60;17.50;99340.00;;;;5031191;28;20456;-81
2021/05/10 01:28:37;;;;;;;10.83;6.97;;;16.10;38.90;17.50;99328.00;;;;5033665;28;20492;-80
2021/05/10 01:31:04;;;;;;;6.13;5.60;;;16.10;40.20;17.50;99312.00;;;;5023149;28;21147;-81
2021/05/10 01:33:32;;;;;;;9.00;6.80;;;16.00;39.90;17.50;99309.00;;;;5024438;28;20608;-81
2021/05/10 01:36:00;;;;;;;10.00;6.80;;;16.10;40.00;17.50;99321.00;;;;5048551;28;20539;-81
2021/05/10 01:38:27;;;;;;;7.47;5.57;;;16.00;41.20;17.40;99317.00;;;;5032872;28;20657;-81
2021/05/10 01:40:55;;;;;;;13.50;6.07;;;15.80;41.80;217.30;164199.00;;;;5038621;28;20489;-81
2021/05/10 01:43:23;;;;;;;6.83;5.90;;;15.80;40.80;17.30;99324.00;;;;5038979;28;20490;-82
2021/05/10 01:45:50;;;;;;;10.40;5.47;;;15.90;40.20;17.30;99315.00;;;;5044986;28;20476;-82
2021/05/10 01:48:18;;;;;;;6.90;6.20;;;15.90;40.60;17.30;99313.00;;;;5034966;28;20500;-82
2021/05/10 01:50:48;;;;;;;10.40;6.07;;;15.90;41.90;17.30;99325.00;;;;5043171;28;20475;-83
2021/05/10 01:53:16;;;;;;;8.37;5.53;;;15.90;42.00;17.30;99313.00;;;;5051289;28;20441;-82
2021/05/10 01:55:44;;;;;;;9.83;5.80;;;15.90;41.20;17.30;99299.00;;;;5050267;28;20477;-82
2021/05/10 01:58:13;;;;;;;5.90;5.30;;;16.00;40.50;17.40;99289.00;;;;5050966;28;20464;-81
2021/05/10 02:00:44;;;;;;;7.40;6.30;;;16.10;40.20;17.40;99299.00;;;;5051458;28;20510;-82
2021/05/10 02:03:13;;;;;;;5.90;5.40;;;16.00;41.40;17.40;99289.00;;;;5042474;28;20508;-82
2021/05/10 02:05:42;;;;;;;6.60;6.00;;;16.00;42.00;17.40;99282.00;;;;5034170;28;20922;-82
2021/05/10 02:08:11;;;;;;;6.90;6.30;;;15.90;41.60;17.40;99262.00;;;;5038990;28;20495;-82
2021/05/10 02:10:41;;;;;;;6.20;5.50;;;15.90;42.40;17.40;99239.00;;;;5059571;28;20464;-82
2021/05/10 02:13:11;;;;;;;7.03;6.37;;;16.00;42.30;17.40;99213.00;;;;5052886;28;20457;-82
2021/05/10 02:15:41;;;;;;;6.07;5.47;;;16.00;42.10;17.30;99197.00;;;;5035644;28;20535;-82
2021/05/10 02:18:09;;;;;;;8.40;6.47;;;16.10;42.20;17.30;99195.00;;;;5044680;28;20542;-82
2021/05/10 02:20:38;;;;;;;7.23;6.30;;;16.00;42.60;17.40;99192.00;;;;5043480;28;20464;-82
2021/05/10 02:23:08;;;;;;;6.70;6.10;;;16.10;43.00;17.40;70132.00;;;;5038426;28;20725;-82
2021/05/10 02:25:38;;;;;;;9.17;5.93;;;16.10;42.40;17.40;99208.00;;;;5038126;28;20487;-81
2021/05/10 02:28:07;;;;;;;9.30;6.50;;;16.30;42.40;17.40;99187.00;;;;5036044;28;20542;-82
2021/05/10 02:30:36;;;;;;;6.50;6.00;;;16.10;42.10;17.30;99168.00;;;;5044468;28;20543;-82
2021/05/10 02:33:08;;;;;;;7.77;6.53;;;16.00;43.10;17.30;99170.00;;;;5045789;28;20468;-83
2021/05/10 02:35:36;;;;;;;7.50;5.40;;;16.10;43.90;17.30;99167.00;;;;5046002;28;20475;-81
2021/05/10 02:38:03;;;;;;;7.00;5.70;;;16.10;43.30;17.20;99152.00;;;;5046469;28;20472;-82
2021/05/10 02:40:31;;;;;;;5.63;5.13;;;16.10;43.00;17.20;99161.00;;;;5036136;28;20488;-83
2021/05/10 02:43:02;;;;;;;8.07;4.93;;;16.10;42.40;17.10;99157.00;;;;5032573;28;20493;-79
2021/05/10 02:45:30;;;;;;;6.13;5.37;;;16.20;41.10;17.10;99158.00;;;;5031673;28;20460;-80
2021/05/10 02:47:58;;;;;;;7.30;5.10;;;16.20;41.00;17.10;99168.00;;;;5034736;28;20509;-81
2021/05/10 02:50:27;;;;;;;6.03;5.20;;;16.20;41.30;17.00;99178.00;;;;5024265;28;20548;-81
2021/05/10 02:52:55;;;;;;;7.80;6.70;;;16.10;41.80;17.00;99171.00;;;;5032770;28;20453;-81
2021/05/10 02:55:23;;;;;;;6.80;6.10;;;16.00;42.80;17.00;99156.00;;;;5025848;28;20507;-81
2021/05/10 02:57:53;;;;;;;6.93;5.93;;;15.90;43.50;16.90;99164.00;;;;5049073;28;20430;-82
2021/05/10 03:00:23;;;;;;;8.30;6.27;;;15.90;44.40;16.90;99168.00;;;;5061060;28;20462;-82
2021/05/10 03:02:55;;;;;;;7.33;6.00;;;15.80;45.00;16.80;99178.00;;;;5044258;28;20713;-82
2021/05/10 03:05:24;;;;;;;6.00;5.40;;;15.70;45.70;16.80;99185.00;;;;5037942;28;20530;-81
2021/05/10 03:07:53;;;;;;;5.83;5.33;;;15.70;46.10;16.80;99197.00;;;;5024201;28;20477;-81
2021/05/10 03:10:23;;;;;;;5.83;5.10;;;15.70;46.60;16.70;99210.00;;;;5023567;28;20493;-81
2021/05/10 03:12:53;;;;;;;5.67;5.17;;;15.70;47.20;16.70;99212.00;;;;5024766;28;20528;-81
2021/05/10 03:15:22;;;;;;;7.37;5.53;;;15.70;47.40;16.70;99221.00;;;;5042525;28;20452;-81
2021/05/10 03:17:51;;;;;;;8.27;6.50;;;15.70;48.00;217.30;163895.00;;;;5032002;28;20460;-81
2021/05/10 03:20:21;;;;;;;6.07;5.47;;;15.60;50.00;16.60;99217.00;;;;5037373;28;20448;-82
2021/05/10 03:22:52;;;;;;;6.30;5.70;;;15.50;51.10;16.60;99221.00;;;;5034762;28;20475;-83
2021/05/10 03:25:21;;;;;;;7.10;6.40;;;15.50;52.10;16.60;99233.00;;;;5035298;28;20442;-83
2021/05/10 03:27:50;;;;;;;6.63;5.93;;;15.40;52.70;16.60;99249.00;;;;5040407;28;20448;-83
2021/05/10 03:30:20;;;;;;;6.43;5.90;;;15.40;53.70;16.50;99252.00;;;;5041346;28;20531;-82
2021/05/10 03:32:48;;;;;;;7.67;6.73;;;15.40;53.90;16.50;99239.00;;;;5041043;28;20457;-82
2021/05/10 03:35:18;;;;;;;7.67;6.97;;;15.40;54.70;16.50;99250.00;;;;5042551;28;20524;-82
2021/05/10 03:37:45;;;;;;;6.87;6.17;;;15.40;54.60;16.60;99254.00;;;;5039991;28;20493;-82
2021/05/10 03:40:18;;;;;;;8.53;6.30;;;15.40;54.10;16.60;99250.00;;;;5032461;28;20437;-82
2021/05/10 03:42:47;;;;;;;10.60;7.20;;;15.50;53.90;16.70;99243.00;;;;5036540;28;20638;-82
2021/05/10 03:45:16;;;;;;;7.57;6.80;;;15.50;54.30;16.70;99129.00;;;;5022008;28;20511;-83
2021/05/10 03:47:44;;;;;;;6.97;5.90;;;15.50;54.30;16.80;99267.00;;;;5029039;28;20437;-82
2021/05/10 03:50:14;;;;;;;7.03;5.87;;;15.50;53.90;217.30;163969.00;;;;5019438;28;20544;-82
2021/05/10 03:52:42;;;;;;;7.60;6.87;;;15.60;53.40;16.80;99259.00;;;;5028511;28;20514;-82
2021/05/10 03:55:14;;;;;;;7.00;6.30;;;15.70;52.90;16.80;99255.00;;;;5030855;28;20456;-82
2021/05/10 03:57:42;;;;;;;10.30;6.17;;;15.70;53.10;16.80;99250.00;;;;5020615;28;20918;-82
2021/05/10 04:00:13;;;;;;;6.70;6.03;;;15.70;52.80;16.80;99245.00;;;;5022042;28;20449;-82
2021/05/10 04:02:42;;;;;;;12.17;6.10;;;15.70;52.30;16.80;99250.00;;;;5043109;28;20449;-83
2021/05/10 04:05:23;;;;;;;11.63;5.73;;;15.70;52.90;16.90;99241.00;;;;5051276;28;20461;-83
2021/05/10 04:07:54;;;;;;;9.23;6.40;;;15.70;54.00;17.00;99250.00;;;;5052189;28;20448;-82
2021/05/10 04:16:08;;;;;;;7.77;5.77;;;15.70;54.20;16.70;70052.00;;;;4952403;29;20499;-82
2021/05/10 04:18:36;;;;;;;9.47;6.10;;;15.70;53.10;17.00;99268.00;;;;4950231;28;20481;-82
2021/05/10 04:21:04;;;;;;;17.10;10.67;;;15.80;51.80;17.10;99269.00;;;;4984851;28;20463;-82
2021/05/10 04:23:32;;;;;;;7.17;6.47;;;15.80;51.30;17.20;99280.00;;;;5029614;28;20596;-82
2021/05/10 04:25:59;;;;;;;6.57;5.97;;;15.90;50.90;17.20;99273.00;;;;5023456;28;20994;-82
2021/05/10 04:28:27;;;;;;;7.47;6.13;;;16.00;49.80;17.30;99275.00;;;;5047858;28;20504;-82
2021/05/10 04:30:56;;;;;;;7.50;6.70;;;16.00;49.90;17.30;99275.00;;;;5022569;28;20445;-82
2021/05/10 04:33:29;;;;;;;8.00;6.50;;;16.00;51.20;17.20;99273.00;;;;5038161;28;20460;-82
2021/05/10 04:35:57;;;;;;;8.47;6.27;;;15.90;52.60;17.20;99268.00;;;;5028541;28;20480;-81
2021/05/10 04:38:25;;;;;;;12.13;6.03;;;15.90;52.40;17.00;99268.00;;;;5038780;28;20473;-83
2021/05/10 04:40:55;;;;;;;7.90;6.13;;;15.90;54.10;16.70;99263.00;;;;5020843;28;20484;-83
2021/05/10 04:43:22;;;;;;;7.00;6.40;;;15.80;54.20;16.60;99312.00;;;;5044732;28;20579;-83
2021/05/10 04:45:50;;;;;;;7.73;6.20;;;15.80;53.50;16.00;69940.00;;;;5036749;28;20471;-81
2021/05/10 04:48:17;;;;;;;6.30;5.70;;;15.90;52.50;16.50;99431.00;;;;5028688;28;20485;-82
2021/05/10 04:50:46;;;;;;;6.03;5.43;;;15.90;51.40;16.60;99421.00;;;;5045706;28;20495;-82
2021/05/10 04:53:14;;;;;;;10.03;5.43;;;16.10;49.50;16.70;99457.00;;;;5030085;28;20460;-82
2021/05/10 04:55:41;;;;;;;7.60;5.03;;;16.30;46.40;16.80;99466.00;;;;5040857;28;20631;-82
2021/05/10 04:58:09;;;;;;;6.07;5.47;;;16.50;45.60;16.90;99466.00;;;;5031170;28;20497;-81
2021/05/10 05:00:36;;;;;;;5.60;5.10;;;16.60;44.90;17.10;99454.00;;;;5032233;28;20890;-81
2021/05/10 05:03:04;;;;;;;5.73;4.90;;;16.70;43.50;17.10;70079.00;;;;5023060;28;20483;-83
2021/05/10 05:05:32;;;;;;;5.30;4.80;;;16.80;41.80;17.20;99431.00;;;;5023561;28;20448;-81
2021/05/10 05:08:01;;;;;;;5.40;4.90;;;16.90;39.60;17.30;99456.00;;;;5037486;28;21044;-82
2021/05/10 05:10:28;;;;;;;8.30;5.67;;;17.00;39.80;17.40;99432.00;;;;5037344;28;20515;-82
2021/05/10 05:12:55;;;;;;;7.70;5.50;;;17.00;39.70;17.40;99424.00;;;;5042123;28;20517;-83
2021/05/10 05:15:23;;;;;;;8.77;5.97;;;17.00;40.60;17.50;99415.00;;;;5049834;28;20471;-83
2021/05/10 05:17:50;;;;;;;9.17;4.50;;;17.00;41.40;17.60;99428.00;;;;5050091;28;20436;-82
2021/05/10 05:20:18;;;;;;;10.97;5.73;;;17.10;41.90;17.70;99422.00;;;;5051988;28;20467;-82
2021/05/10 05:22:47;;;;;;;6.93;4.90;;;17.10;41.70;17.80;99427.00;;;;5068570;28;20463;-82
2021/05/10 05:25:16;;;;;;;4.90;4.37;;;17.20;41.50;18.00;99415.00;;;;5041141;28;20458;-82
2021/05/10 05:27:43;;;;;;;6.83;4.50;;;17.30;40.30;18.10;99411.00;;;;5058294;28;20453;-82
2021/05/10 05:30:12;;;;;;;6.87;4.63;;;17.50;36.40;18.30;99418.00;;;;5052926;28;20452;-82
2021/05/10 05:32:40;;;;;;;4.33;3.93;;;17.70;32.60;18.50;99430.00;;;;5052827;28;20452;-83
2021/05/10 05:35:09;;;;;;;5.30;4.00;;;17.90;29.70;18.60;99437.00;;;;5052535;28;20449;-81
2021/05/10 05:37:36;;;;;;;4.77;4.27;;;18.00;31.70;18.70;99444.00;;;;5063389;28;20459;-83
2021/05/10 05:40:05;;;;;;;6.33;4.20;;;18.00;32.60;18.80;99451.00;;;;5058867;28;20513;-82
2021/05/10 05:42:34;;;;;;;6.97;5.10;;;18.00;32.60;19.10;99451.00;;;;5060798;28;20446;-82
2021/05/10 05:45:03;;;;;;;7.03;4.93;;;18.20;34.30;19.20;99446.00;;;;5042827;28;20500;-82
2021/05/10 05:47:30;;;;;;;8.27;5.70;;;18.20;33.20;19.30;99450.00;;;;5051720;28;20457;-83
2021/05/10 05:49:58;;;;;;;11.10;5.90;;;18.30;31.70;19.40;99457.00;;;;5041279;28;20472;-83
2021/05/10 05:52:25;;;;;;;7.53;5.30;;;18.40;31.90;19.60;99473.00;;;;5050438;28;20472;-84
2021/05/10 05:54:54;;;;;;;7.40;4.70;;;18.50;31.20;19.80;99462.00;;;;5044431;28;20456;-82
2021/05/10 05:57:21;;;;;;;6.00;4.30;;;18.70;28.30;19.90;99472.00;;;;5059362;28;20464;-79
2021/05/10 05:59:50;;;;;;;6.00;4.10;;;18.80;26.80;19.90;99458.00;;;;5067713;28;20457;-83
2021/05/10 06:02:17;;;;;;;9.10;4.37;;;18.80;25.60;19.90;99482.00;;;;5060424;28;20467;-81
2021/05/10 06:04:44;;;;;;;7.67;4.20;;;18.80;23.30;20.00;99480.00;;;;5048135;28;20469;-80
2021/05/10 06:07:12;;;;;;;7.70;4.20;;;18.90;23.10;20.00;99484.00;;;;5056461;28;20448;-82
2021/05/10 06:09:39;;;;;;;10.57;4.53;;;19.00;21.40;20.00;99492.00;;;;5054595;28;20499;-83
2021/05/10 06:12:08;;;;;;;8.73;4.87;;;19.00;20.70;20.10;99497.00;;;;5051588;28;20471;-82
2021/05/10 06:14:35;;;;;;;9.50;4.70;;;19.20;19.70;20.40;99502.00;;;;5045577;28;20467;-81
2021/05/10 06:17:04;;;;;;;7.10;4.20;;;19.40;18.40;20.60;99486.00;;;;5050563;28;20518;-81
2021/05/10 06:19:33;;;;;;;6.83;4.67;;;19.60;17.20;20.80;99520.00;;;;5040977;28;20465;-81
2021/05/10 06:22:01;;;;;;;6.13;4.10;;;19.70;16.80;21.00;99519.00;;;;5057364;28;20455;-81
2021/05/10 06:24:29;;;;;;;6.23;4.70;;;19.90;15.80;21.20;99517.00;;;;5045965;28;20483;-81
2021/05/10 06:26:56;;;;;;;6.50;4.00;;;20.00;15.60;21.30;99517.00;;;;5043840;28;20499;-81
2021/05/10 06:29:24;;;;;;;8.30;4.00;;;20.20;14.70;21.50;99504.00;;;;5039867;28;20476;-81
2021/05/10 06:31:51;;;;;;;8.30;3.80;;;20.30;14.00;21.70;99516.00;;;;5057426;28;20449;-81
2021/05/10 06:34:20;;;;;;;7.23;3.43;;;20.40;13.50;21.70;99525.00;;;;5038424;28;20520;-82
2021/05/10 06:36:47;;;;;;;6.27;3.77;;;20.50;12.70;21.80;99527.00;;;;5037161;28;20511;-81
2021/05/10 06:39:14;;;;;;;6.17;3.40;;;20.60;11.70;21.80;99531.00;;;;5042821;28;20494;-82
2021/05/10 06:41:42;;;;;;;5.97;3.60;;;20.60;11.10;21.90;99526.00;;;;5036924;28;20532;-81
2021/05/10 06:44:10;;;;;;;6.03;3.70;;;20.70;10.50;22.00;99509.00;;;;5039415;28;20523;-82
2021/05/10 06:46:37;;;;;;;4.90;3.20;;;20.70;10.60;22.00;99529.00;;;;5049871;28;20694;-82
2021/05/10 06:49:05;;;;;;;9.03;3.10;;;20.80;9.60;22.10;99525.00;;;;5054106;28;20458;-81
2021/05/10 06:51:33;;;;;;;7.00;3.27;;;20.90;8.90;22.30;99540.00;;;;5058327;28;20475;-79
2021/05/10 06:54:01;;;;;;;4.73;2.93;;;21.00;8.60;22.50;99530.00;;;;5050526;28;20515;-81
2021/05/10 06:56:28;;;;;;;3.63;2.87;;;21.20;7.40;22.70;99534.00;;;;5048910;28;20469;-79
2021/05/10 06:58:55;;;;;;;6.33;3.30;;;21.50;6.20;22.90;99510.00;;;;5037511;28;20489;-80
2021/05/10 07:01:23;;;;;;;4.50;2.80;;;21.70;5.70;22.90;99510.00;;;;5036472;28;20491;-80
2021/05/10 07:03:51;;;;;;;4.10;3.20;;;21.80;5.00;23.10;99516.00;;;;5035040;28;20476;-80
2021/05/10 07:06:18;;;;;;;4.33;2.60;;;21.90;4.60;23.30;99517.00;;;;5034991;28;20468;-80
2021/05/10 07:08:46;;;;;;;5.40;3.03;;;22.10;3.70;23.40;99530.00;;;;5035700;28;20484;-80
2021/05/10 07:11:14;;;;;;;5.20;3.35;;;22.20;3.20;23.30;99535.00;;;;5047531;28;20434;-80
2021/05/10 07:13:41;;;;;;;6.50;3.10;;;22.10;3.20;22.90;99536.00;;;;5033136;28;20545;-80
2021/05/10 07:16:09;;;;;;;5.43;2.67;;;21.90;2.50;22.60;99522.00;;;;5025446;28;20431;-80
2021/05/10 07:18:36;;;;;;;5.25;2.80;;;21.70;2.70;22.60;99542.00;;;;5031270;28;20426;-79
2021/05/10 07:21:04;;;;;;;6.28;2.78;;;21.60;3.80;217.30;166497.00;;;;5029949;28;20419;-80
2021/05/10 07:23:33;;;;;;;6.40;2.70;;;21.60;3.30;22.60;99552.00;;;;5025033;28;20434;-80
2021/05/10 07:26:01;;;;;;;4.32;2.83;;;21.60;3.00;22.70;99533.00;;;;5053990;28;20920;-80
2021/05/10 07:28:29;;;;;;;5.50;2.90;;;21.70;2.70;22.80;99539.00;;;;5036985;28;20454;-80
2021/05/10 07:30:56;;;;;;;3.58;2.33;;;21.80;1.90;22.70;99540.00;;;;5036792;28;21034;-80
2021/05/10 07:33:24;;;;;;;3.87;2.73;;;21.70;2.00;22.50;99550.00;;;;5043065;28;20198;-82
2021/05/10 07:35:51;;;;;;;4.80;2.83;;;21.50;3.90;22.60;99545.00;;;;5044176;28;20442;-82
2021/05/10 07:38:19;;;;;;;7.72;2.70;;;21.50;3.60;22.80;99549.00;;;;5065560;28;20438;-82
2021/05/10 07:40:47;;;;;;;5.82;2.78;;;21.70;2.70;23.20;99541.00;;;;5050998;28;20439;-81
2021/05/10 07:43:15;;;;;;;4.53;2.30;;;22.00;1.30;23.30;99546.00;;;;5054271;28;20434;-80
2021/05/10 07:45:45;;;;;;;4.95;2.00;;;22.30;1.00;23.60;99547.00;;;;5051682;28;20422;-81
2021/05/10 07:48:14;;;;;;;3.92;2.47;;;22.50;1.00;217.30;167050.00;;;;5042825;28;20420;-81
2021/05/10 07:50:42;;;;;;;5.32;2.20;;;22.70;1.00;217.30;167022.00;;;;5027896;28;20405;-82
2021/05/10 07:53:13;;;;;;;5.75;2.45;;;22.80;1.00;24.30;99567.00;;;;5068568;28;20439;-83
2021/05/10 07:55:40;;;;;;;4.60;2.40;;;23.20;1.00;24.50;99563.00;;;;5048369;28;20419;-82
2021/05/10 07:58:08;;;;;;;5.10;2.47;;;23.50;1.00;24.40;99554.00;;;;5053295;28;20912;-82
2021/05/10 08:00:40;;;;;;;3.45;2.50;;;23.50;1.00;24.70;99550.00;;;;5069849;28;20422;-83
2021/05/10 08:03:09;;;;;;;3.70;2.00;;;23.50;1.00;24.60;99574.00;;;;5051701;28;20426;-83
2021/05/10 08:05:39;;;;;;;4.93;2.55;;;23.50;1.00;24.10;99584.00;;;;5042139;28;20430;-82
2021/05/10 08:08:13;;;;;;;6.03;2.65;;;23.20;1.00;23.90;99586.00;;;;5039255;28;20423;-81
2021/05/10 08:10:42;;;;;;;4.68;2.60;;;22.90;1.00;23.50;99600.00;;;;5045331;28;20812;-82
2021/05/10 08:13:11;;;;;;;4.60;2.17;;;22.60;1.00;23.20;99596.00;;;;5037457;28;20429;-83
2021/05/10 08:15:39;;;;;;;4.18;1.95;;;22.30;1.00;23.00;99591.00;;;;5032010;28;20812;-81
2021/05/10 08:18:08;;;;;;;5.70;2.20;;;22.20;1.00;22.90;99593.00;;;;5055435;28;20463;-81
2021/05/10 08:20:42;;;;;;;3.55;2.00;;;22.10;1.00;22.90;99594.00;;;;5037306;28;20427;-83
2021/05/10 08:23:10;;;;;;;6.82;2.20;;;22.10;1.00;23.10;99611.00;;;;5026430;28;20430;-80
2021/05/10 08:25:42;;;;;;;4.28;2.10;;;22.10;1.00;23.10;99604.00;;;;5040357;28;20437;-83
2021/05/10 08:28:10;;;;;;;4.32;2.03;;;22.10;1.00;23.10;99589.00;;;;5034606;28;20415;-81
2021/05/10 08:30:39;;;;;;;4.60;2.20;;;22.20;1.00;23.20;99603.00;;;;5034015;28;20862;-82
2021/05/10 08:33:07;;;;;;;2.47;1.90;;;22.10;1.00;23.20;99586.00;;;;5043642;28;21127;-80
2021/05/10 08:35:34;;;;;;;4.25;2.10;;;22.20;1.00;23.40;99588.00;;;;5034540;28;20454;-80
2021/05/10 08:38:02;;;;;;;3.72;1.98;;;22.30;1.00;23.50;99599.00;;;;5036089;28;20431;-80
2021/05/10 08:40:31;;;;;;;4.10;1.80;;;22.50;1.00;23.60;99606.00;;;;5047351;28;20423;-79
2021/05/10 08:42:59;;;;;;;3.30;2.00;;;22.60;1.00;23.50;99595.00;;;;5027367;28;20419;-80
2021/05/10 08:45:28;;;;;;;3.35;1.80;;;22.50;1.00;23.60;99583.00;;;;5046544;28;20445;-83
2021/05/10 08:48:00;;;;;;;4.22;1.85;;;22.60;1.00;23.60;99582.00;;;;5054363;28;20487;-84
2021/05/10 08:50:29;;;;;;;4.00;1.60;;;22.50;1.00;217.30;166927.00;;;;5049413;28;20465;-84
2021/05/10 08:52:57;;;;;;;4.30;1.90;;;22.60;1.00;23.80;99609.00;;;;5049540;28;20458;-84
2021/05/10 08:55:24;;;;;;;4.35;1.95;;;22.60;1.00;24.00;99607.00;;;;5044131;28;20418;-82
2021/05/10 08:57:52;;;;;;;3.90;1.70;;;22.90;1.00;24.30;99607.00;;;;5046027;28;20419;-81
2021/05/10 09:00:22;;;;;;;3.30;1.55;;;23.10;1.00;24.90;99608.00;;;;5029055;28;20458;-80
2021/05/10 09:03:08;;;;;;;3.88;1.60;;;23.50;1.00;25.30;99629.00;;;;5037420;28;20425;-83
2021/05/10 09:05:47;;;;;;;4.07;1.50;;;23.90;1.00;25.50;99611.00;;;;5037451;28;20502;-81
2021/05/10 09:08:15;;;;;;;2.80;1.50;;;24.10;1.00;25.80;99613.00;;;;5035302;28;20436;-81
2021/05/10 09:11:08;;;;;;;3.00;1.40;;;24.40;1.00;25.60;99616.00;;;;5030272;28;20425;-78
2021/05/10 09:13:41;;;;;;;3.63;1.50;;;24.40;1.00;25.60;99615.00;;;;5018415;28;20454;-80
2021/05/10 09:16:10;;;;;;;2.90;1.50;;;24.30;1.00;25.30;99618.00;;;;5019735;28;20490;-78
2021/05/10 09:18:39;;;;;;;2.40;1.48;;;24.20;1.00;25.30;99611.00;;;;5026850;28;20485;-79
2021/05/10 09:21:16;;;;;;;2.75;1.20;;;23.90;1.00;25.00;99611.00;;;;5030056;28;20636;-80
2021/05/10 09:24:21;;;;;;;2.90;1.60;;;23.70;1.00;25.00;99626.00;;;;5046695;28;20835;-83
2021/05/10 09:27:25;;;;;;;2.10;1.10;;;23.70;1.00;24.90;99641.00;;;;5032488;28;20436;-80
2021/05/10 09:30:12;;;;;;;3.10;1.20;;;23.70;1.00;25.00;99657.00;;;;5034883;28;20441;-80
2021/05/10 09:32:40;;;;;;;1.80;1.00;;;23.70;1.00;25.30;99651.00;;;;5036406;28;20434;-79
2021/05/10 09:35:29;;;;;;;2.20;1.10;;;23.80;1.00;25.20;99650.00;;;;5035767;28;20449;-79
2021/05/10 09:38:03;;;;;;;4.40;1.10;;;23.80;1.00;24.70;99644.00;;;;5034058;28;20454;-82
2021/05/10 09:40:45;;;;;;;2.73;1.03;;;23.40;1.00;24.10;99645.00;;;;5048902;28;20415;-82
2021/05/10 09:43:15;;;;;;;3.33;1.23;;;22.90;1.00;24.00;99657.00;;;;5050614;28;20427;-84
2021/05/10 09:45:49;;;;;;;2.10;1.30;;;22.80;1.00;23.90;99674.00;;;;5032781;28;20482;-83
2021/05/10 09:48:29;;;;;;;4.18;1.40;;;22.70;1.00;23.60;99691.00;;;;5041020;28;20912;-82
2021/05/10 09:51:01;;;;;;;2.25;1.10;;;22.60;1.00;23.50;99697.00;;;;5047907;28;20485;-81
2021/05/10 09:53:40;;;;;;;2.58;1.20;;;22.40;1.00;23.50;99704.00;;;;5034046;28;20423;-81
2021/05/10 09:56:11;;;;;;;3.30;1.10;;;22.30;1.00;23.10;99691.00;;;;5026340;28;20426;-82
2021/05/10 09:58:44;;;;;;;2.95;1.08;;;22.10;1.00;23.00;99691.00;;;;5040411;28;20434;-82
2021/05/10 10:01:16;;;;;;;3.53;1.20;;;22.00;1.00;23.40;99711.00;;;;5052383;28;20465;-83
2021/05/10 10:03:45;;;;;;;1.50;1.10;;;22.20;1.00;52.70;166933.00;;;;5048835;28;20931;-83
2021/05/10 10:06:15;;;;;;;2.60;1.30;;;22.40;1.00;23.20;99752.00;;;;5049944;28;20422;-81
2021/05/10 10:08:45;;;;;;;3.58;1.30;;;22.20;1.00;22.90;99752.00;;;;5034678;28;20449;-83
2021/05/10 10:11:15;;;;;;;5.63;1.60;;;21.90;1.00;22.90;99761.00;;;;5025521;28;20852;-82
2021/05/10 10:13:44;;;;;;;2.17;1.25;;;21.90;1.00;23.00;99781.00;;;;5033886;28;20427;-81
2021/05/10 10:16:17;;;;;;;3.20;1.45;;;21.90;1.00;22.90;99776.00;;;;5045413;28;20419;-82
2021/05/10 10:18:45;;;;;;;4.18;1.10;;;21.90;1.00;23.00;99779.00;;;;5025794;28;20418;-82
2021/05/10 10:21:18;;;;;;;3.28;1.20;;;21.90;1.00;23.10;99776.00;;;;5033643;28;20789;-82
2021/05/10 10:23:53;;;;;;;2.40;1.38;;;21.90;1.00;23.30;99783.00;;;;5025384;28;20489;-84
2021/05/10 10:26:42;;;;;;;2.95;1.20;;;22.00;1.00;23.20;99755.00;;;;5037756;28;20425;-83
2021/05/10 10:29:12;;;;;;;2.95;1.20;;;22.10;1.00;23.50;99765.00;;;;5028535;28;20419;-82
2021/05/10 10:31:44;;;;;;;2.30;1.10;;;22.20;1.00;23.80;99781.00;;;;5046763;28;21527;-80
2021/05/10 10:34:25;;;;;;;2.22;1.10;;;22.40;1.00;24.10;99775.00;;;;5041783;28;20943;-83
2021/05/10 10:36:58;;;;;;;2.55;1.10;;;22.60;1.00;24.50;99769.00;;;;5037306;28;20427;-83
2021/05/10 10:39:27;;;;;;;3.17;1.60;;;22.90;1.00;25.00;99765.00;;;;5029100;28;21078;-84
2021/05/10 10:41:58;;;;;;;2.40;1.20;;;23.40;1.00;25.60;99765.00;;;;5030634;28;21330;-83
2021/05/10 10:44:34;;;;;;;2.95;1.10;;;23.90;1.00;25.60;99760.00;;;;5033678;28;20466;-83
2021/05/10 10:47:05;;;;;;;2.10;1.17;;;24.00;1.00;25.30;99772.00;;;;5050073;28;20419;-83
2021/05/10 10:49:36;;;;;;;1.88;1.10;;;23.70;1.00;24.90;99768.00;;;;5026757;28;20431;-82
2021/05/10 10:52:16;;;;;;;3.33;1.10;;;23.30;1.00;24.60;99768.00;;;;5044577;28;20434;-84
2021/05/10 10:54:43;;;;;;;3.60;1.10;;;23.10;1.00;24.60;99775.00;;;;5061560;28;20406;-79
2021/05/10 10:57:30;;;;;;;2.70;1.20;;;22.90;1.00;24.80;99767.00;;;;5045082;28;20425;-81
2021/05/10 10:59:58;;;;;;;2.75;1.40;;;23.00;1.00;25.20;99747.00;;;;5042396;28;20445;-83
2021/05/10 11:02:28;;;;;;;3.40;1.70;;;23.30;1.00;25.40;99767.00;;;;5066777;28;20431;-82
2021/05/10 11:05:14;;;;;;;1.77;1.20;;;23.70;1.00;25.50;99745.00;;;;5059697;28;20420;-82
2021/05/10 11:07:52;;;;;;;2.50;1.02;;;24.00;1.00;26.10;99761.00;;;;5023174;28;20414;-83
2021/05/10 11:10:50;;;;;;;1.73;1.10;;;24.20;1.00;26.40;99750.00;;;;5034249;28;20415;-83
2021/05/10 11:13:38;;;;;;;2.30;1.00;;;24.40;1.00;26.40;99766.00;;;;5034961;28;20434;-82
2021/05/10 11:16:09;;;;;;;1.70;1.00;;;24.50;1.00;26.50;99776.00;;;;5042159;28;20457;-82